Boston, Kentucky
Current Conditions -  °F | °C
As of 11:58 PM on Thursday 27 Nov 2014 (Local Time) from KFTK Reporting Station
Overcast Overcast  
Wind Chill: 17°   Ceiling: 3600
Heat Index: 25°   Visibility: 10mi
Dew Point: 20°   Wind: 7mph
Humidity: 82%   Direction: 240°WSW
Pressure: 30.42"   Gusts: NA
Location:  37.79°N, 85.67°W
Report Text: KFTK 280458Z AUTO 24006KT 10SM OVC036 M04/M06 A3042 RMK AO2 SLP313 T10391065 400201040
Loading
Personal Weather Stations






























Interactive Weather Map New forecast layout! Learn more

10-Day Weather Forecast

Advertisements
Track Severe Weather on mobile